sensor_id;sensor_type;location;lat;lon;timestamp;P1;durP1;ratioP1;P2;durP2;ratioP2
46653;SDS011;38960;51.074;17.004;2024-01-30T00:00:42;19.08;;;10.40;;
46653;SDS011;38960;51.074;17.004;2024-01-30T00:03:07;25.63;;;11.73;;
46653;SDS011;38960;51.074;17.004;2024-01-30T00:05:33;34.00;;;11.80;;
46653;SDS011;38960;51.074;17.004;2024-01-30T00:07:58;25.93;;;10.67;;
46653;SDS011;38960;51.074;17.004;2024-01-30T00:10:24;19.87;;;9.20;;
46653;SDS011;38960;51.074;17.004;2024-01-30T00:12:49;23.33;;;11.40;;
46653;SDS011;38960;51.074;17.004;2024-01-30T00:15:14;22.37;;;10.57;;
46653;SDS011;38960;51.074;17.004;2024-01-30T00:17:40;21.07;;;9.77;;
46653;SDS011;38960;51.074;17.004;2024-01-30T00:20:06;20.53;;;10.53;;
46653;SDS011;38960;51.074;17.004;2024-01-30T00:22:32;20.90;;;9.80;;
46653;SDS011;38960;51.074;17.004;2024-01-30T00:24:58;22.95;;;11.18;;
46653;SDS011;38960;51.074;17.004;2024-01-30T00:27:23;23.33;;;10.35;;
46653;SDS011;38960;51.074;17.004;2024-01-30T00:29:49;22.23;;;10.60;;
46653;SDS011;38960;51.074;17.004;2024-01-30T00:32:14;23.33;;;10.17;;
46653;SDS011;38960;51.074;17.004;2024-01-30T00:34:41;20.90;;;9.90;;
46653;SDS011;38960;51.074;17.004;2024-01-30T00:37:06;20.95;;;9.98;;
46653;SDS011;38960;51.074;17.004;2024-01-30T00:39:32;20.83;;;9.57;;
46653;SDS011;38960;51.074;17.004;2024-01-30T00:41:57;23.25;;;11.32;;
46653;SDS011;38960;51.074;17.004;2024-01-30T00:44:23;30.33;;;11.20;;
46653;SDS011;38960;51.074;17.004;2024-01-30T00:46:49;25.63;;;11.27;;
46653;SDS011;38960;51.074;17.004;2024-01-30T00:49:14;23.07;;;10.47;;
46653;SDS011;38960;51.074;17.004;2024-01-30T00:51:40;20.83;;;9.93;;
46653;SDS011;38960;51.074;17.004;2024-01-30T00:54:05;28.40;;;11.93;;
46653;SDS011;38960;51.074;17.004;2024-01-30T00:56:31;31.83;;;10.80;;
46653;SDS011;38960;51.074;17.004;2024-01-30T00:58:57;21.42;;;10.63;;
46653;SDS011;38960;51.074;17.004;2024-01-30T01:01:22;25.77;;;11.15;;
46653;SDS011;38960;51.074;17.004;2024-01-30T01:03:48;25.77;;;11.00;;
46653;SDS011;38960;51.074;17.004;2024-01-30T01:06:13;30.03;;;12.07;;
46653;SDS011;38960;51.074;17.004;2024-01-30T01:08:39;23.83;;;11.00;;
46653;SDS011;38960;51.074;17.004;2024-01-30T01:11:05;21.53;;;10.67;;
46653;SDS011;38960;51.074;17.004;2024-01-30T01:13:30;26.30;;;11.20;;
46653;SDS011;38960;51.074;17.004;2024-01-30T01:15:56;27.00;;;10.23;;
46653;SDS011;38960;51.074;17.004;2024-01-30T01:18:21;28.03;;;10.43;;
46653;SDS011;38960;51.074;17.004;2024-01-30T01:20:47;26.63;;;12.40;;
46653;SDS011;38960;51.074;17.004;2024-01-30T01:23:12;29.93;;;12.97;;
46653;SDS011;38960;51.074;17.004;2024-01-30T01:25:38;26.93;;;11.30;;
46653;SDS011;38960;51.074;17.004;2024-01-30T01:28:03;31.27;;;12.33;;
46653;SDS011;38960;51.074;17.004;2024-01-30T01:30:29;30.30;;;13.53;;
46653;SDS011;38960;51.074;17.004;2024-01-30T01:32:55;35.43;;;14.00;;
46653;SDS011;38960;51.074;17.004;2024-01-30T01:35:22;27.17;;;12.80;;
46653;SDS011;38960;51.074;17.004;2024-01-30T01:37:49;30.63;;;13.77;;
46653;SDS011;38960;51.074;17.004;2024-01-30T01:40:20;26.57;;;12.07;;
46653;SDS011;38960;51.074;17.004;2024-01-30T01:42:47;33.03;;;13.33;;
46653;SDS011;38960;51.074;17.004;2024-01-30T01:45:14;31.77;;;14.30;;
46653;SDS011;38960;51.074;17.004;2024-01-30T01:47:40;32.27;;;12.87;;
46653;SDS011;38960;51.074;17.004;2024-01-30T01:50:06;34.73;;;13.60;;
46653;SDS011;38960;51.074;17.004;2024-01-30T01:52:32;27.57;;;12.63;;
46653;SDS011;38960;51.074;17.004;2024-01-30T01:54:58;24.70;;;12.43;;
46653;SDS011;38960;51.074;17.004;2024-01-30T01:57:24;32.80;;;13.50;;
46653;SDS011;38960;51.074;17.004;2024-01-30T01:59:50;26.03;;;11.83;;
46653;SDS011;38960;51.074;17.004;2024-01-30T02:02:15;26.03;;;10.93;;
46653;SDS011;38960;51.074;17.004;2024-01-30T02:04:43;27.50;;;12.53;;
46653;SDS011;38960;51.074;17.004;2024-01-30T02:07:09;34.87;;;12.37;;
46653;SDS011;38960;51.074;17.004;2024-01-30T02:09:34;30.60;;;11.87;;
46653;SDS011;38960;51.074;17.004;2024-01-30T02:12:00;30.50;;;11.77;;
46653;SDS011;38960;51.074;17.004;2024-01-30T02:14:25;21.70;;;9.70;;
46653;SDS011;38960;51.074;17.004;2024-01-30T02:16:51;20.73;;;10.73;;
46653;SDS011;38960;51.074;17.004;2024-01-30T02:19:16;26.73;;;11.70;;
46653;SDS011;38960;51.074;17.004;2024-01-30T02:21:42;26.73;;;10.93;;
46653;SDS011;38960;51.074;17.004;2024-01-30T02:24:08;21.23;;;10.90;;
46653;SDS011;38960;51.074;17.004;2024-01-30T02:26:33;23.70;;;11.90;;
46653;SDS011;38960;51.074;17.004;2024-01-30T02:28:59;23.40;;;9.43;;
46653;SDS011;38960;51.074;17.004;2024-01-30T02:31:25;22.67;;;10.67;;
46653;SDS011;38960;51.074;17.004;2024-01-30T02:33:51;20.07;;;9.20;;
46653;SDS011;38960;51.074;17.004;2024-01-30T02:36:16;19.70;;;10.23;;
46653;SDS011;38960;51.074;17.004;2024-01-30T02:38:42;19.37;;;9.33;;
46653;SDS011;38960;51.074;17.004;2024-01-30T02:41:07;20.20;;;9.90;;
46653;SDS011;38960;51.074;17.004;2024-01-30T02:43:33;16.77;;;8.87;;
46653;SDS011;38960;51.074;17.004;2024-01-30T02:45:58;22.43;;;10.00;;
46653;SDS011;38960;51.074;17.004;2024-01-30T02:48:25;22.33;;;9.90;;
46653;SDS011;38960;51.074;17.004;2024-01-30T02:50:51;17.67;;;9.40;;
46653;SDS011;38960;51.074;17.004;2024-01-30T02:53:17;25.93;;;10.77;;
46653;SDS011;38960;51.074;17.004;2024-01-30T02:55:42;17.77;;;8.83;;
46653;SDS011;38960;51.074;17.004;2024-01-30T02:58:08;19.50;;;9.47;;
46653;SDS011;38960;51.074;17.004;2024-01-30T03:00:33;20.57;;;10.20;;
46653;SDS011;38960;51.074;17.004;2024-01-30T03:02:59;19.60;;;8.90;;
46653;SDS011;38960;51.074;17.004;2024-01-30T03:05:25;17.17;;;9.77;;
46653;SDS011;38960;51.074;17.004;2024-01-30T03:07:50;22.03;;;10.37;;
46653;SDS011;38960;51.074;17.004;2024-01-30T03:10:16;19.20;;;9.80;;
46653;SDS011;38960;51.074;17.004;2024-01-30T03:12:41;21.70;;;9.90;;
46653;SDS011;38960;51.074;17.004;2024-01-30T03:15:07;23.63;;;9.70;;
46653;SDS011;38960;51.074;17.004;2024-01-30T03:17:32;16.10;;;9.50;;
46653;SDS011;38960;51.074;17.004;2024-01-30T03:19:58;21.10;;;10.23;;
46653;SDS011;38960;51.074;17.004;2024-01-30T03:22:23;21.47;;;10.20;;
46653;SDS011;38960;51.074;17.004;2024-01-30T03:24:49;24.57;;;10.13;;
46653;SDS011;38960;51.074;17.004;2024-01-30T03:27:14;19.73;;;10.93;;
46653;SDS011;38960;51.074;17.004;2024-01-30T03:29:40;22.83;;;10.60;;
46653;SDS011;38960;51.074;17.004;2024-01-30T03:32:05;22.90;;;9.73;;
46653;SDS011;38960;51.074;17.004;2024-01-30T03:34:31;22.17;;;10.23;;
46653;SDS011;38960;51.074;17.004;2024-01-30T03:36:56;19.07;;;8.50;;
46653;SDS011;38960;51.074;17.004;2024-01-30T03:39:22;20.90;;;11.10;;
46653;SDS011;38960;51.074;17.004;2024-01-30T03:41:48;20.20;;;10.67;;
46653;SDS011;38960;51.074;17.004;2024-01-30T03:44:13;19.77;;;10.23;;
46653;SDS011;38960;51.074;17.004;2024-01-30T03:46:39;19.87;;;9.77;;
46653;SDS011;38960;51.074;17.004;2024-01-30T03:49:04;21.43;;;10.17;;
46653;SDS011;38960;51.074;17.004;2024-01-30T03:51:30;17.33;;;9.20;;
46653;SDS011;38960;51.074;17.004;2024-01-30T03:53:55;21.63;;;9.37;;
46653;SDS011;38960;51.074;17.004;2024-01-30T03:56:21;22.47;;;10.53;;
46653;SDS011;38960;51.074;17.004;2024-01-30T03:58:46;24.10;;;9.47;;
46653;SDS011;38960;51.074;17.004;2024-01-30T04:01:15;17.97;;;9.67;;
46653;SDS011;38960;51.074;17.004;2024-01-30T04:03:40;23.17;;;11.37;;
46653;SDS011;38960;51.074;17.004;2024-01-30T04:06:06;23.50;;;11.73;;
46653;SDS011;38960;51.074;17.004;2024-01-30T04:08:32;24.67;;;10.33;;
46653;SDS011;38960;51.074;17.004;2024-01-30T04:10:58;24.17;;;10.67;;
46653;SDS011;38960;51.074;17.004;2024-01-30T04:13:23;19.87;;;9.53;;
46653;SDS011;38960;51.074;17.004;2024-01-30T04:15:49;19.60;;;9.70;;
46653;SDS011;38960;51.074;17.004;2024-01-30T04:18:14;26.30;;;10.47;;
46653;SDS011;38960;51.074;17.004;2024-01-30T04:20:40;24.10;;;10.67;;
46653;SDS011;38960;51.074;17.004;2024-01-30T04:23:05;27.37;;;10.47;;
46653;SDS011;38960;51.074;17.004;2024-01-30T04:25:31;20.80;;;10.77;;
46653;SDS011;38960;51.074;17.004;2024-01-30T04:27:56;26.37;;;12.17;;
46653;SDS011;38960;51.074;17.004;2024-01-30T04:30:22;24.23;;;10.73;;
46653;SDS011;38960;51.074;17.004;2024-01-30T04:32:47;16.70;;;9.60;;
46653;SDS011;38960;51.074;17.004;2024-01-30T04:35:13;22.60;;;10.73;;
46653;SDS011;38960;51.074;17.004;2024-01-30T04:37:38;23.77;;;10.60;;
46653;SDS011;38960;51.074;17.004;2024-01-30T04:40:04;27.33;;;11.60;;
46653;SDS011;38960;51.074;17.004;2024-01-30T04:42:30;24.37;;;10.33;;
46653;SDS011;38960;51.074;17.004;2024-01-30T04:44:55;25.83;;;12.07;;
46653;SDS011;38960;51.074;17.004;2024-01-30T04:47:21;23.07;;;11.60;;
46653;SDS011;38960;51.074;17.004;2024-01-30T04:49:46;22.53;;;11.07;;
46653;SDS011;38960;51.074;17.004;2024-01-30T04:52:12;26.17;;;12.00;;
46653;SDS011;38960;51.074;17.004;2024-01-30T04:54:37;26.30;;;13.23;;
46653;SDS011;38960;51.074;17.004;2024-01-30T04:57:03;24.50;;;11.83;;
46653;SDS011;38960;51.074;17.004;2024-01-30T04:59:30;26.23;;;13.37;;
46653;SDS011;38960;51.074;17.004;2024-01-30T05:01:56;21.77;;;12.00;;
46653;SDS011;38960;51.074;17.004;2024-01-30T05:04:21;22.33;;;11.47;;
46653;SDS011;38960;51.074;17.004;2024-01-30T05:06:47;22.17;;;11.87;;
46653;SDS011;38960;51.074;17.004;2024-01-30T05:09:12;31.53;;;12.60;;
46653;SDS011;38960;51.074;17.004;2024-01-30T05:11:38;24.20;;;11.53;;
46653;SDS011;38960;51.074;17.004;2024-01-30T05:14:04;21.27;;;11.00;;
46653;SDS011;38960;51.074;17.004;2024-01-30T05:16:30;25.53;;;11.60;;
46653;SDS011;38960;51.074;17.004;2024-01-30T05:18:56;25.53;;;13.27;;
46653;SDS011;38960;51.074;17.004;2024-01-30T05:21:22;22.10;;;12.07;;
46653;SDS011;38960;51.074;17.004;2024-01-30T05:23:47;24.60;;;12.33;;
46653;SDS011;38960;51.074;17.004;2024-01-30T05:26:12;28.90;;;12.27;;
46653;SDS011;38960;51.074;17.004;2024-01-30T05:28:38;27.43;;;13.57;;
46653;SDS011;38960;51.074;17.004;2024-01-30T05:31:03;24.53;;;12.47;;
46653;SDS011;38960;51.074;17.004;2024-01-30T05:33:29;27.97;;;12.00;;
46653;SDS011;38960;51.074;17.004;2024-01-30T05:35:54;30.40;;;14.50;;
46653;SDS011;38960;51.074;17.004;2024-01-30T05:38:20;23.53;;;12.77;;
46653;SDS011;38960;51.074;17.004;2024-01-30T05:40:45;32.73;;;14.37;;
46653;SDS011;38960;51.074;17.004;2024-01-30T05:43:11;29.10;;;13.93;;
46653;SDS011;38960;51.074;17.004;2024-01-30T05:45:37;26.67;;;12.50;;
46653;SDS011;38960;51.074;17.004;2024-01-30T05:48:02;27.43;;;12.37;;
46653;SDS011;38960;51.074;17.004;2024-01-30T05:50:28;25.73;;;14.33;;
46653;SDS011;38960;51.074;17.004;2024-01-30T05:52:54;28.23;;;12.43;;
46653;SDS011;38960;51.074;17.004;2024-01-30T05:55:20;29.93;;;13.67;;
46653;SDS011;38960;51.074;17.004;2024-01-30T05:57:46;28.23;;;13.03;;
46653;SDS011;38960;51.074;17.004;2024-01-30T06:00:11;25.93;;;11.87;;
46653;SDS011;38960;51.074;17.004;2024-01-30T06:02:38;23.70;;;12.10;;
46653;SDS011;38960;51.074;17.004;2024-01-30T06:05:03;25.43;;;13.43;;
46653;SDS011;38960;51.074;17.004;2024-01-30T06:07:29;25.40;;;12.27;;
46653;SDS011;38960;51.074;17.004;2024-01-30T06:09:54;28.20;;;14.40;;
46653;SDS011;38960;51.074;17.004;2024-01-30T06:12:20;27.87;;;12.97;;
46653;SDS011;38960;51.074;17.004;2024-01-30T06:14:45;29.77;;;13.03;;
46653;SDS011;38960;51.074;17.004;2024-01-30T06:17:11;29.00;;;13.30;;
46653;SDS011;38960;51.074;17.004;2024-01-30T06:19:37;25.30;;;13.33;;
46653;SDS011;38960;51.074;17.004;2024-01-30T06:22:04;31.67;;;14.63;;
46653;SDS011;38960;51.074;17.004;2024-01-30T06:24:30;24.80;;;13.20;;
46653;SDS011;38960;51.074;17.004;2024-01-30T06:26:55;24.20;;;14.07;;
46653;SDS011;38960;51.074;17.004;2024-01-30T06:29:21;28.10;;;12.80;;
46653;SDS011;38960;51.074;17.004;2024-01-30T06:31:46;20.80;;;11.63;;
46653;SDS011;38960;51.074;17.004;2024-01-30T06:34:12;25.20;;;14.47;;
46653;SDS011;38960;51.074;17.004;2024-01-30T06:36:37;24.20;;;13.40;;
46653;SDS011;38960;51.074;17.004;2024-01-30T06:39:03;22.67;;;13.00;;
46653;SDS011;38960;51.074;17.004;2024-01-30T06:41:29;29.10;;;11.73;;
46653;SDS011;38960;51.074;17.004;2024-01-30T06:43:55;28.70;;;12.27;;
46653;SDS011;38960;51.074;17.004;2024-01-30T06:46:20;28.57;;;11.93;;
46653;SDS011;38960;51.074;17.004;2024-01-30T06:48:46;29.57;;;13.40;;
46653;SDS011;38960;51.074;17.004;2024-01-30T06:51:11;25.20;;;12.97;;
46653;SDS011;38960;51.074;17.004;2024-01-30T06:53:37;23.20;;;12.43;;
46653;SDS011;38960;51.074;17.004;2024-01-30T06:56:03;32.50;;;14.13;;
46653;SDS011;38960;51.074;17.004;2024-01-30T06:58:29;32.17;;;12.23;;
46653;SDS011;38960;51.074;17.004;2024-01-30T07:00:55;21.00;;;8.73;;
46653;SDS011;38960;51.074;17.004;2024-01-30T07:03:21;18.50;;;8.23;;
46653;SDS011;38960;51.074;17.004;2024-01-30T07:05:48;16.57;;;8.87;;
46653;SDS011;38960;51.074;17.004;2024-01-30T07:08:14;13.13;;;7.50;;
46653;SDS011;38960;51.074;17.004;2024-01-30T07:10:42;11.67;;;6.87;;
46653;SDS011;38960;51.074;17.004;2024-01-30T07:13:11;20.30;;;9.43;;
46653;SDS011;38960;51.074;17.004;2024-01-30T07:15:37;18.30;;;8.47;;
46653;SDS011;38960;51.074;17.004;2024-01-30T07:18:03;16.87;;;7.40;;
46653;SDS011;38960;51.074;17.004;2024-01-30T07:20:30;15.27;;;7.17;;
46653;SDS011;38960;51.074;17.004;2024-01-30T07:22:57;17.20;;;7.13;;
46653;SDS011;38960;51.074;17.004;2024-01-30T07:25:23;19.73;;;7.13;;
46653;SDS011;38960;51.074;17.004;2024-01-30T07:27:52;11.03;;;5.70;;
46653;SDS011;38960;51.074;17.004;2024-01-30T07:30:18;16.57;;;6.10;;
46653;SDS011;38960;51.074;17.004;2024-01-30T07:32:45;22.80;;;7.40;;
46653;SDS011;38960;51.074;17.004;2024-01-30T07:35:11;17.10;;;6.80;;
46653;SDS011;38960;51.074;17.004;2024-01-30T07:37:37;17.30;;;6.87;;
46653;SDS011;38960;51.074;17.004;2024-01-30T07:40:03;16.17;;;6.97;;
46653;SDS011;38960;51.074;17.004;2024-01-30T07:42:29;13.52;;;7.75;;
46653;SDS011;38960;51.074;17.004;2024-01-30T07:44:54;15.27;;;6.65;;
46653;SDS011;38960;51.074;17.004;2024-01-30T07:47:20;11.77;;;6.37;;
46653;SDS011;38960;51.074;17.004;2024-01-30T07:49:45;10.40;;;6.13;;
46653;SDS011;38960;51.074;17.004;2024-01-30T07:52:11;14.73;;;6.70;;
46653;SDS011;38960;51.074;17.004;2024-01-30T07:54:36;14.77;;;7.22;;
46653;SDS011;38960;51.074;17.004;2024-01-30T07:57:04;16.58;;;6.60;;
46653;SDS011;38960;51.074;17.004;2024-01-30T07:59:30;15.55;;;7.65;;
46653;SDS011;38960;51.074;17.004;2024-01-30T08:01:55;16.55;;;6.97;;
46653;SDS011;38960;51.074;17.004;2024-01-30T08:04:21;11.70;;;5.85;;
46653;SDS011;38960;51.074;17.004;2024-01-30T08:06:47;10.30;;;5.88;;
46653;SDS011;38960;51.074;17.004;2024-01-30T08:09:12;10.45;;;6.03;;
46653;SDS011;38960;51.074;17.004;2024-01-30T08:11:37;9.55;;;5.72;;
46653;SDS011;38960;51.074;17.004;2024-01-30T08:14:03;12.73;;;6.10;;
46653;SDS011;38960;51.074;17.004;2024-01-30T08:16:28;10.57;;;6.07;;
46653;SDS011;38960;51.074;17.004;2024-01-30T08:18:54;12.70;;;6.00;;
46653;SDS011;38960;51.074;17.004;2024-01-30T08:21:22;11.30;;;6.15;;
46653;SDS011;38960;51.074;17.004;2024-01-30T08:23:48;11.40;;;6.13;;
46653;SDS011;38960;51.074;17.004;2024-01-30T08:26:13;12.65;;;6.57;;
46653;SDS011;38960;51.074;17.004;2024-01-30T08:28:39;10.60;;;5.45;;
46653;SDS011;38960;51.074;17.004;2024-01-30T08:31:04;10.23;;;5.32;;
46653;SDS011;38960;51.074;17.004;2024-01-30T08:33:30;13.82;;;6.50;;
46653;SDS011;38960;51.074;17.004;2024-01-30T08:35:55;14.55;;;6.35;;
46653;SDS011;38960;51.074;17.004;2024-01-30T08:38:21;10.93;;;5.43;;
46653;SDS011;38960;51.074;17.004;2024-01-30T08:40:46;16.80;;;5.75;;
46653;SDS011;38960;51.074;17.004;2024-01-30T08:43:12;11.02;;;5.57;;
46653;SDS011;38960;51.074;17.004;2024-01-30T08:45:37;10.45;;;5.07;;
46653;SDS011;38960;51.074;17.004;2024-01-30T08:48:03;12.88;;;5.15;;
46653;SDS011;38960;51.074;17.004;2024-01-30T08:50:29;13.45;;;5.65;;
46653;SDS011;38960;51.074;17.004;2024-01-30T08:52:54;12.82;;;6.30;;
46653;SDS011;38960;51.074;17.004;2024-01-30T08:55:20;10.80;;;6.03;;
46653;SDS011;38960;51.074;17.004;2024-01-30T08:57:45;12.43;;;5.28;;
46653;SDS011;38960;51.074;17.004;2024-01-30T09:00:11;11.15;;;5.15;;
46653;SDS011;38960;51.074;17.004;2024-01-30T09:02:43;14.70;;;5.65;;
46653;SDS011;38960;51.074;17.004;2024-01-30T09:05:14;12.35;;;5.35;;
46653;SDS011;38960;51.074;17.004;2024-01-30T09:07:40;10.57;;;4.93;;
46653;SDS011;38960;51.074;17.004;2024-01-30T09:10:06;7.90;;;4.72;;
46653;SDS011;38960;51.074;17.004;2024-01-30T09:12:31;12.43;;;5.93;;
46653;SDS011;38960;51.074;17.004;2024-01-30T09:14:57;10.40;;;5.20;;
46653;SDS011;38960;51.074;17.004;2024-01-30T09:17:22;11.80;;;5.18;;
46653;SDS011;38960;51.074;17.004;2024-01-30T09:19:48;11.30;;;5.90;;
46653;SDS011;38960;51.074;17.004;2024-01-30T09:22:16;14.20;;;6.10;;
46653;SDS011;38960;51.074;17.004;2024-01-30T09:24:42;21.45;;;7.25;;
46653;SDS011;38960;51.074;17.004;2024-01-30T09:27:08;11.80;;;5.20;;
46653;SDS011;38960;51.074;17.004;2024-01-30T09:29:33;12.02;;;5.88;;
46653;SDS011;38960;51.074;17.004;2024-01-30T09:32:01;11.48;;;5.43;;
46653;SDS011;38960;51.074;17.004;2024-01-30T09:34:26;7.70;;;4.55;;
46653;SDS011;38960;51.074;17.004;2024-01-30T09:36:52;7.20;;;4.53;;
46653;SDS011;38960;51.074;17.004;2024-01-30T09:39:17;12.00;;;5.57;;
46653;SDS011;38960;51.074;17.004;2024-01-30T09:41:47;15.75;;;6.47;;
46653;SDS011;38960;51.074;17.004;2024-01-30T09:44:15;8.82;;;4.75;;
46653;SDS011;38960;51.074;17.004;2024-01-30T09:46:41;13.60;;;4.93;;
46653;SDS011;38960;51.074;17.004;2024-01-30T09:49:08;9.50;;;4.95;;
46653;SDS011;38960;51.074;17.004;2024-01-30T09:51:34;10.10;;;5.28;;
46653;SDS011;38960;51.074;17.004;2024-01-30T09:54:00;9.32;;;5.25;;
46653;SDS011;38960;51.074;17.004;2024-01-30T09:56:28;18.25;;;6.72;;
46653;SDS011;38960;51.074;17.004;2024-01-30T09:58:54;22.73;;;8.85;;
46653;SDS011;38960;51.074;17.004;2024-01-30T10:01:20;18.40;;;8.55;;
46653;SDS011;38960;51.074;17.004;2024-01-30T10:03:46;15.68;;;6.50;;
46653;SDS011;38960;51.074;17.004;2024-01-30T10:06:11;27.73;;;10.30;;
46653;SDS011;38960;51.074;17.004;2024-01-30T10:08:37;23.95;;;10.40;;
46653;SDS011;38960;51.074;17.004;2024-01-30T10:11:02;25.20;;;9.90;;
46653;SDS011;38960;51.074;17.004;2024-01-30T10:13:29;26.33;;;10.38;;
46653;SDS011;38960;51.074;17.004;2024-01-30T10:15:54;26.35;;;11.15;;
46653;SDS011;38960;51.074;17.004;2024-01-30T10:18:20;56.05;;;20.42;;
46653;SDS011;38960;51.074;17.004;2024-01-30T10:20:47;28.45;;;11.98;;
46653;SDS011;38960;51.074;17.004;2024-01-30T10:23:13;30.83;;;10.45;;
46653;SDS011;38960;51.074;17.004;2024-01-30T10:25:39;39.35;;;15.35;;
46653;SDS011;38960;51.074;17.004;2024-01-30T10:28:04;26.65;;;10.55;;
46653;SDS011;38960;51.074;17.004;2024-01-30T10:30:30;11.38;;;6.13;;
46653;SDS011;38960;51.074;17.004;2024-01-30T10:32:55;17.13;;;7.97;;
46653;SDS011;38960;51.074;17.004;2024-01-30T10:35:21;39.28;;;15.75;;
46653;SDS011;38960;51.074;17.004;2024-01-30T10:37:47;25.83;;;10.48;;
46653;SDS011;38960;51.074;17.004;2024-01-30T10:40:13;31.98;;;12.05;;
46653;SDS011;38960;51.074;17.004;2024-01-30T10:42:41;19.05;;;8.45;;
46653;SDS011;38960;51.074;17.004;2024-01-30T10:45:12;27.08;;;10.77;;
46653;SDS011;38960;51.074;17.004;2024-01-30T10:47:52;46.75;;;18.15;;
46653;SDS011;38960;51.074;17.004;2024-01-30T10:50:18;58.28;;;22.38;;
46653;SDS011;38960;51.074;17.004;2024-01-30T10:52:44;28.23;;;10.13;;
46653;SDS011;38960;51.074;17.004;2024-01-30T10:55:10;17.83;;;7.55;;
46653;SDS011;38960;51.074;17.004;2024-01-30T10:57:36;17.20;;;8.93;;
46653;SDS011;38960;51.074;17.004;2024-01-30T11:00:03;31.67;;;13.43;;
46653;SDS011;38960;51.074;17.004;2024-01-30T11:02:37;14.30;;;6.45;;
46653;SDS011;38960;51.074;17.004;2024-01-30T11:05:04;10.68;;;5.45;;
46653;SDS011;38960;51.074;17.004;2024-01-30T11:07:29;17.13;;;5.15;;
46653;SDS011;38960;51.074;17.004;2024-01-30T11:12:26;10.60;;;6.10;;
46653;SDS011;38960;51.074;17.004;2024-01-30T11:15:14;20.27;;;10.00;;
46653;SDS011;38960;51.074;17.004;2024-01-30T11:17:49;22.42;;;9.05;;
46653;SDS011;38960;51.074;17.004;2024-01-30T11:22:45;47.80;;;15.63;;
46653;SDS011;38960;51.074;17.004;2024-01-30T11:25:15;26.25;;;10.85;;
46653;SDS011;38960;51.074;17.004;2024-01-30T11:27:41;58.05;;;20.55;;
46653;SDS011;38960;51.074;17.004;2024-01-30T11:30:10;14.90;;;6.05;;
46653;SDS011;38960;51.074;17.004;2024-01-30T11:32:36;14.52;;;6.20;;
46653;SDS011;38960;51.074;17.004;2024-01-30T11:35:03;22.98;;;10.02;;
46653;SDS011;38960;51.074;17.004;2024-01-30T11:37:31;40.47;;;16.63;;
46653;SDS011;38960;51.074;17.004;2024-01-30T11:39:57;14.48;;;8.32;;
46653;SDS011;38960;51.074;17.004;2024-01-30T11:42:23;21.50;;;9.80;;
46653;SDS011;38960;51.074;17.004;2024-01-30T11:44:52;18.00;;;6.07;;
46653;SDS011;38960;51.074;17.004;2024-01-30T11:47:18;18.73;;;6.45;;
46653;SDS011;38960;51.074;17.004;2024-01-30T11:49:43;11.50;;;5.45;;
46653;SDS011;38960;51.074;17.004;2024-01-30T11:52:09;12.35;;;5.28;;
46653;SDS011;38960;51.074;17.004;2024-01-30T11:54:35;10.80;;;5.95;;
46653;SDS011;38960;51.074;17.004;2024-01-30T11:57:01;13.48;;;5.63;;
46653;SDS011;38960;51.074;17.004;2024-01-30T11:59:26;13.73;;;5.20;;
46653;SDS011;38960;51.074;17.004;2024-01-30T12:01:52;18.73;;;6.78;;
46653;SDS011;38960;51.074;17.004;2024-01-30T12:04:17;10.80;;;5.18;;
46653;SDS011;38960;51.074;17.004;2024-01-30T12:06:43;13.32;;;6.55;;
46653;SDS011;38960;51.074;17.004;2024-01-30T12:09:09;13.80;;;6.18;;
46653;SDS011;38960;51.074;17.004;2024-01-30T12:11:45;13.50;;;6.47;;
46653;SDS011;38960;51.074;17.004;2024-01-30T12:14:11;10.35;;;5.25;;
46653;SDS011;38960;51.074;17.004;2024-01-30T12:16:37;13.32;;;6.18;;
46653;SDS011;38960;51.074;17.004;2024-01-30T12:19:02;24.15;;;10.05;;
46653;SDS011;38960;51.074;17.004;2024-01-30T12:21:28;10.90;;;5.35;;
46653;SDS011;38960;51.074;17.004;2024-01-30T12:23:54;11.85;;;5.35;;
46653;SDS011;38960;51.074;17.004;2024-01-30T12:26:20;18.63;;;8.55;;
46653;SDS011;38960;51.074;17.004;2024-01-30T12:28:49;22.13;;;6.90;;
46653;SDS011;38960;51.074;17.004;2024-01-30T12:31:15;12.60;;;5.03;;
46653;SDS011;38960;51.074;17.004;2024-01-30T12:33:41;35.17;;;9.90;;
46653;SDS011;38960;51.074;17.004;2024-01-30T12:36:06;19.30;;;7.38;;
46653;SDS011;38960;51.074;17.004;2024-01-30T12:38:32;9.93;;;5.10;;
46653;SDS011;38960;51.074;17.004;2024-01-30T12:40:58;16.98;;;4.85;;
46653;SDS011;38960;51.074;17.004;2024-01-30T12:43:23;17.70;;;5.60;;
46653;SDS011;38960;51.074;17.004;2024-01-30T12:45:50;15.32;;;8.57;;
46653;SDS011;38960;51.074;17.004;2024-01-30T12:48:15;16.05;;;8.38;;
46653;SDS011;38960;51.074;17.004;2024-01-30T12:50:41;15.27;;;5.93;;
46653;SDS011;38960;51.074;17.004;2024-01-30T12:53:07;10.38;;;5.80;;
46653;SDS011;38960;51.074;17.004;2024-01-30T12:55:34;13.68;;;6.65;;
46653;SDS011;38960;51.074;17.004;2024-01-30T12:57:59;10.38;;;5.43;;
46653;SDS011;38960;51.074;17.004;2024-01-30T13:00:25;15.88;;;5.40;;
46653;SDS011;38960;51.074;17.004;2024-01-30T13:02:51;12.00;;;5.00;;
46653;SDS011;38960;51.074;17.004;2024-01-30T13:05:16;11.93;;;5.90;;
46653;SDS011;38960;51.074;17.004;2024-01-30T13:07:42;10.48;;;5.53;;
46653;SDS011;38960;51.074;17.004;2024-01-30T13:10:08;13.77;;;5.38;;
46653;SDS011;38960;51.074;17.004;2024-01-30T13:12:34;22.73;;;6.28;;
46653;SDS011;38960;51.074;17.004;2024-01-30T13:14:59;14.75;;;6.15;;
46653;SDS011;38960;51.074;17.004;2024-01-30T13:17:29;13.00;;;5.70;;
46653;SDS011;38960;51.074;17.004;2024-01-30T13:19:55;14.75;;;6.75;;
46653;SDS011;38960;51.074;17.004;2024-01-30T13:22:21;22.92;;;9.40;;
46653;SDS011;38960;51.074;17.004;2024-01-30T13:24:47;16.23;;;7.25;;
46653;SDS011;38960;51.074;17.004;2024-01-30T13:27:12;41.25;;;18.33;;
46653;SDS011;38960;51.074;17.004;2024-01-30T13:29:38;50.17;;;18.25;;
46653;SDS011;38960;51.074;17.004;2024-01-30T13:32:04;40.20;;;16.00;;
46653;SDS011;38960;51.074;17.004;2024-01-30T13:34:29;28.60;;;10.50;;
46653;SDS011;38960;51.074;17.004;2024-01-30T13:36:55;28.65;;;10.75;;
46653;SDS011;38960;51.074;17.004;2024-01-30T13:39:20;36.78;;;14.88;;
46653;SDS011;38960;51.074;17.004;2024-01-30T13:41:46;40.13;;;15.75;;
46653;SDS011;38960;51.074;17.004;2024-01-30T13:44:13;27.35;;;11.80;;
46653;SDS011;38960;51.074;17.004;2024-01-30T13:46:39;13.27;;;6.88;;
46653;SDS011;38960;51.074;17.004;2024-01-30T13:49:04;25.05;;;11.50;;
46653;SDS011;38960;51.074;17.004;2024-01-30T13:51:30;22.77;;;8.38;;
46653;SDS011;38960;51.074;17.004;2024-01-30T13:53:55;34.63;;;14.60;;
46653;SDS011;38960;51.074;17.004;2024-01-30T13:56:21;13.52;;;6.50;;
46653;SDS011;38960;51.074;17.004;2024-01-30T13:58:48;18.25;;;7.82;;
46653;SDS011;38960;51.074;17.004;2024-01-30T14:01:14;20.75;;;7.75;;
46653;SDS011;38960;51.074;17.004;2024-01-30T14:03:39;32.33;;;13.90;;
46653;SDS011;38960;51.074;17.004;2024-01-30T14:06:05;19.27;;;7.60;;
46653;SDS011;38960;51.074;17.004;2024-01-30T14:08:31;18.83;;;8.73;;
46653;SDS011;38960;51.074;17.004;2024-01-30T14:10:57;23.27;;;9.10;;
46653;SDS011;38960;51.074;17.004;2024-01-30T14:13:23;16.70;;;9.43;;